»·PEaware :: N258CB KSEA-KHIO

N258CB :: KSEA-KHIO

FLIGHT INFORMATION

Flight Status: Arrived
Operator: Privately registered:
United States
More flights under this callsign
Pilot: Eric W. (14379)
Aircraft: CESSNA 208 CARAVAN
(C208)
More flights by this aircraft type
Origin: KSEA Seattle-Tacoma Intl
United States
Destination: KHIO Portland-Hillsboro
United States
More flights between these airports :: More routes between these airports
Route: +SEA7 SEA BUWZO HELNS6
File this flight plan on PilotEdge
Remarks: RMK / SIMBRIEF
Altitude:
(Current/Filed)
13,000ft
Speed:
(Current/Filed)
175kts
Departed: 21-Nov-20 12:45 PM
Arrived: 21-Nov-20 01:57 PM
Distance/Time
Traveled:
118nm/1:11
Distance/Time
To Go:
Arrived

Flight Plot

Page will automatically refresh every two minutes.

Flight plan parsing failed; only flown route is shown


Map Options




Map Legend


Flown Route
Filed Route
Departure Airport
Arrival Airport
Navaid (VOR, NDB)
Fix

Horizontal Profiles

Position Reports

Time Latitude Longitude Heading Altitude Ground
Speed
21-Nov-20 12:17 47.461081 -122.301701 0 426ft 0kts
21-Nov-20 12:19 47.462812 -122.303844 0 429ft 0kts
21-Nov-20 12:20 47.462812 -122.303844 0 429ft 0kts
21-Nov-20 12:21 47.462812 -122.303844 0 429ft 0kts
21-Nov-20 12:22 47.462812 -122.303844 0 429ft 0kts
21-Nov-20 12:23 47.462812 -122.303844 0 429ft 0kts
21-Nov-20 12:24 47.462812 -122.303844 0 429ft 0kts
21-Nov-20 12:24 47.462812 -122.303844 0 429ft 0kts
21-Nov-20 12:26 47.462812 -122.303844 0 429ft 0kts
21-Nov-20 12:26 47.462812 -122.303844 0 429ft 0kts
21-Nov-20 12:28 47.462812 -122.303844 0 429ft 0kts
21-Nov-20 12:28 47.462812 -122.303844 0 429ft 0kts
21-Nov-20 12:29 47.462812 -122.303844 0 429ft 0kts
21-Nov-20 12:31 47.462812 -122.303844 0 429ft 0kts
21-Nov-20 12:31 47.462812 -122.303844 0 429ft 0kts
21-Nov-20 12:32 47.462812 -122.303844 0 429ft 0kts
21-Nov-20 12:33 47.462812 -122.303844 0 429ft 0kts
21-Nov-20 12:34 47.462812 -122.303844 0 429ft 0kts
21-Nov-20 12:35 47.461459 -122.306190 182 426ft 15kts
21-Nov-20 12:36 47.457704 -122.306205 180 415ft 11kts
21-Nov-20 12:37 47.452571 -122.306256 180 401ft 17kts
21-Nov-20 12:38 47.448562 -122.306278 180 392ft 14kts
21-Nov-20 12:39 47.444802 -122.306337 180 387ft 14kts
21-Nov-20 12:40 47.442487 -122.306346 179 384ft 15kts
21-Nov-20 12:41 47.438414 -122.306380 181 380ft 8kts
21-Nov-20 12:42 47.438154 -122.306522 232 380ft 0kts
21-Nov-20 12:43 47.439146 -122.307966 1 381ft 30kts
21-Nov-20 12:44 47.463112 -122.309725 353 998ft 109kts
21-Nov-20 12:45 47.496032 -122.312099 2 2065ft 119kts
21-Nov-20 12:46 47.527689 -122.310059 4 3319ft 113kts
21-Nov-20 12:47 47.560035 -122.309569 1 4458ft 120kts
21-Nov-20 12:48 47.571474 -122.285534 126 5586ft 108kts
21-Nov-20 12:49 47.555992 -122.247176 127 6783ft 109kts
21-Nov-20 12:50 47.541033 -122.207173 127 7948ft 113kts
21-Nov-20 12:51 47.526030 -122.165329 127 9187ft 117kts
21-Nov-20 12:52 47.510257 -122.120487 127 10406ft 131kts
21-Nov-20 12:53 47.493198 -122.072199 127 11603ft 136kts
21-Nov-20 12:54 47.475167 -122.021276 127 12639ft 150kts
21-Nov-20 12:55 47.439425 -122.013542 192 12731ft 156kts
21-Nov-20 12:56 47.395366 -122.022953 192 12714ft 163kts
21-Nov-20 12:57 47.350402 -122.032790 192 12703ft 164kts
21-Nov-20 12:58 47.305250 -122.042659 192 12705ft 164kts
21-Nov-20 12:59 47.260055 -122.052725 192 12705ft 165kts
21-Nov-20 13:00 47.214902 -122.062839 192 12705ft 165kts
21-Nov-20 13:01 47.169662 -122.073070 192 12705ft 164kts
21-Nov-20 13:02 47.124495 -122.083386 192 12709ft 165kts
21-Nov-20 13:03 47.079283 -122.093824 192 12707ft 164kts
21-Nov-20 13:04 47.034116 -122.104451 192 12704ft 164kts
21-Nov-20 13:05 47.013674 -122.158922 241 12724ft 165kts
21-Nov-20 13:06 46.991134 -122.217253 235 12707ft 164kts
21-Nov-20 13:07 46.967162 -122.273790 236 12701ft 163kts
21-Nov-20 13:08 46.937490 -122.314427 175 12704ft 167kts
21-Nov-20 13:09 46.891489 -122.309931 183 12704ft 165kts
21-Nov-20 13:10 46.845726 -122.310486 184 12705ft 165kts
21-Nov-20 13:11 46.799553 -122.310298 183 12703ft 165kts
21-Nov-20 13:12 46.753461 -122.310298 183 12728ft 167kts
21-Nov-20 13:13 46.706698 -122.310215 184 12724ft 168kts
21-Nov-20 13:14 46.660234 -122.310138 184 12712ft 165kts
21-Nov-20 13:15 46.614729 -122.310096 184 12731ft 165kts
21-Nov-20 13:16 46.568180 -122.310037 183 12771ft 170kts
21-Nov-20 13:17 46.521120 -122.309955 184 12737ft 167kts
21-Nov-20 13:18 46.474280 -122.309886 184 12732ft 168kts
21-Nov-20 13:19 46.428212 -122.309828 184 12728ft 163kts
21-Nov-20 13:20 46.382427 -122.309780 184 12751ft 166kts
21-Nov-20 13:21 46.336672 -122.309720 184 12711ft 162kts
21-Nov-20 13:22 46.291203 -122.309688 184 12801ft 169kts
21-Nov-20 13:23 46.245200 -122.317230 199 12559ft 167kts
21-Nov-20 13:24 46.201916 -122.340079 203 11566ft 163kts
21-Nov-20 13:25 46.159692 -122.363989 201 10547ft 164kts
21-Nov-20 13:26 46.117601 -122.387315 201 9839ft 155kts
21-Nov-20 13:27 46.077394 -122.409701 202 9753ft 159kts
21-Nov-20 13:28 46.035490 -122.432917 201 9759ft 162kts
21-Nov-20 13:29 45.993043 -122.456447 201 9060ft 162kts
21-Nov-20 13:30 45.951074 -122.479665 201 8046ft 162kts
21-Nov-20 13:31 45.908385 -122.503229 200 7057ft 165kts
21-Nov-20 13:32 45.865184 -122.527039 199 6064ft 169kts
21-Nov-20 13:33 45.820373 -122.551700 198 5073ft 175kts
21-Nov-20 13:34 45.777172 -122.575419 198 4763ft 167kts
21-Nov-20 13:35 45.751290 -122.620779 270 4749ft 176kts
21-Nov-20 13:36 45.756547 -122.690403 275 4756ft 176kts
21-Nov-20 13:37 45.762925 -122.759654 274 4759ft 175kts
21-Nov-20 13:38 45.768979 -122.828480 274 4753ft 174kts
21-Nov-20 13:39 45.775006 -122.896879 273 4756ft 173kts
21-Nov-20 13:40 45.780984 -122.965214 272 4758ft 173kts
21-Nov-20 13:41 45.786855 -123.033079 272 4703ft 170kts
21-Nov-20 13:42 45.792721 -123.100872 272 4634ft 172kts
21-Nov-20 13:43 45.798425 -123.167578 271 4352ft 163kts
21-Nov-20 13:44 45.805700 -123.228156 293 4332ft 156kts
21-Nov-20 13:45 45.824220 -123.283625 289 4333ft 153kts
21-Nov-20 13:46 45.853523 -123.295942 97 4319ft 141kts
21-Nov-20 13:47 45.830258 -123.254953 138 4344ft 140kts
21-Nov-20 13:48 45.796559 -123.220363 148 4324ft 153kts
21-Nov-20 13:49 45.761835 -123.183464 145 4328ft 160kts
21-Nov-20 13:50 45.725306 -123.144787 145 4077ft 166kts
21-Nov-20 13:51 45.688726 -123.105730 144 3550ft 165kts
21-Nov-20 13:52 45.651864 -123.066550 141 2658ft 161kts
21-Nov-20 13:53 45.615956 -123.029377 139 1810ft 159kts
21-Nov-20 13:54 45.581388 -122.993037 142 929ft 136kts
21-Nov-20 13:55 45.555636 -122.965890 141 351ft 92kts
21-Nov-20 13:56 45.539860 -122.949948 172 208ft 22kts
21-Nov-20 13:57 45.541438 -122.952858 320 209ft 9kts
21-Nov-20 13:58 45.541245 -122.954385 330 207ft 0kts
21-Nov-20 13:59 45.541245 -122.954385 330 207ft 0kts

Navigation Log

Ident Type
Flight plan parsing failed, navigation log unavailable